X  Stänga Metar väderdata för luftfart     LEGR F.G.L. Airport Granada-Jaén Airport
Temperatur
31°C Temperatur
11°C Daggpunkt
29% Fuktighet



Vind
8 KM/T
5 MPH
2 M/S
4 KTS



Lugn
N
Nuvarande omständigheter

Klar Klar
Tryck 1012.87 (hPa) - 29.91 (inHg)
Synlighet 6 (mil) - 9.7 (km)
Flygplats
Flygplatskod LEGR

Plats: F.G.L. Airport Granada-Jaén Airport
Distans: 138 (km)

Metar:
LEGR 241030Z VRB04KT CAVOK 31/11 Q1013

Tid: 24-06-2024 12:30 CEST